Time;durP1;ratioP1;P1;durP2;ratioP2;P2;SDS_P1;SDS_P2;PMS_P1;PMS_P2;Temp;Humidity;BMP_temperature;BMP_pressure;BME280_temperature;BME280_humidity;BME280_pressure;Samples;Min_cycle;Max_cycle;Signal;HPM_P1;HPM_P2
2022/11/04 00:02:21;;;;;;;25.33;12.17;;;;;;;6.12;100.00;99754.59;1822850;79;21091;-78
2022/11/04 00:04:48;;;;;;;25.20;12.07;;;;;;;6.10;100.00;99772.70;1823279;79;20987;-77
2022/11/04 00:10:00;;;;;;;20.93;9.90;;;;;;;6.07;100.00;99777.88;1784406;80;21028;-76
2022/11/04 00:12:27;;;;;;;19.60;9.73;;;;;;;6.08;100.00;99788.95;1784221;80;21525;-78
2022/11/04 00:17:17;;;;;;;19.27;9.23;;;;;;;6.09;100.00;99784.41;1784103;80;21032;-79
2022/11/04 00:17:25;;;;;;;16.60;8.10;;;;;;;6.04;100.00;99786.73;1779688;80;21118;-77
2022/11/04 00:33:51;;;;;;;13.60;6.17;;;;;;;5.84;100.00;99830.18;1722289;83;21036;-77
2022/11/04 00:36:18;;;;;;;12.57;5.90;;;;;;;5.85;100.00;99841.28;1722325;83;21044;-78
2022/11/04 00:38:45;;;;;;;14.57;6.07;;;;;;;5.81;100.00;99843.91;1722372;83;21051;-77
2022/11/04 00:41:26;;;;;;;11.63;6.03;;;;;;;5.78;100.00;99858.95;1721471;83;21638;-78
2022/11/04 00:43:58;;;;;;;9.40;5.03;;;;;;;5.77;100.00;99854.56;1705458;83;21062;-78
2022/11/04 00:46:26;;;;;;;11.47;6.20;;;;;;;5.75;100.00;99865.94;1685726;85;21007;-78
2022/11/04 00:48:52;;;;;;;9.00;5.07;;;;;;;5.72;100.00;99865.75;1685715;85;21163;-78
2022/11/04 00:51:20;;;;;;;10.43;5.40;;;;;;;5.70;100.00;99869.91;1685563;85;21026;-78
2022/11/04 00:53:47;;;;;;;10.20;5.27;;;;;;;5.69;100.00;99877.59;1685623;85;21079;-77
2022/11/04 00:56:15;;;;;;;9.30;4.50;;;;;;;5.73;100.00;99884.02;1685617;85;21120;-78
2022/11/04 00:58:42;;;;;;;7.17;4.50;;;;;;;5.75;100.00;99894.11;1685900;85;21047;-78
2022/11/04 01:01:11;;;;;;;6.40;4.10;;;;;;;5.78;100.00;99881.76;1685647;85;21062;-78
2022/11/04 01:03:38;;;;;;;7.50;3.70;;;;;;;5.76;100.00;99893.97;1685791;85;20991;-77
2022/11/04 01:06:05;;;;;;;6.13;3.87;;;;;;;5.76;100.00;99893.13;1685671;85;21075;-78
2022/11/04 01:08:32;;;;;;;7.47;4.10;;;;;;;5.75;100.00;99894.95;1685811;85;20979;-78
2022/11/04 01:11:03;;;;;;;7.67;4.17;;;;;;;5.70;100.00;99890.03;1685343;84;21212;-78
2022/11/04 01:13:30;;;;;;;8.30;3.97;;;;;;;5.66;100.00;99897.16;1685808;85;21058;-76
2022/11/04 01:16:00;;;;;;;5.53;3.70;;;;;;;5.64;100.00;99912.05;1685397;84;21039;-79
2022/11/04 01:18:27;;;;;;;4.13;3.30;;;;;;;5.64;100.00;99907.19;1685591;85;21042;-77
2022/11/04 01:21:00;;;;;;;4.87;3.70;;;;;;;5.65;100.00;99915.59;1685403;85;21087;-78
2022/11/04 01:23:26;;;;;;;7.47;3.67;;;;;;;5.63;100.00;99918.42;1685614;85;21035;-78
2022/11/04 01:25:53;;;;;;;3.53;2.90;;;;;;;5.60;100.00;99918.70;1685414;85;21054;-78
2022/11/04 01:28:20;;;;;;;5.10;3.33;;;;;;;5.61;100.00;99928.92;1743347;82;21468;-77
2022/11/04 01:30:47;;;;;;;7.30;3.47;;;;;;;5.62;100.00;99935.48;1753412;82;21077;-78
2022/11/04 01:33:14;;;;;;;3.93;2.70;;;;;;;5.64;100.00;99944.23;1752557;82;21030;-77
2022/11/04 01:35:44;;;;;;;5.17;3.27;;;;;;;5.68;100.00;99951.51;1753620;82;21018;-78
2022/11/04 01:38:11;;;;;;;4.60;3.20;;;;;;;5.67;100.00;99956.54;1753027;82;21006;-77
2022/11/04 01:40:38;;;;;;;4.30;3.23;;;;;;;5.65;100.00;99955.33;1753326;82;20950;-77
2022/11/04 01:43:16;;;;;;;3.97;2.70;;;;;;;5.65;100.00;99947.28;1752837;81;21503;-77
2022/11/04 01:45:53;;;;;;;4.23;3.10;;;;;;;5.64;100.00;99937.53;1709672;84;21015;-78
2022/11/04 01:48:30;;;;;;;4.83;3.10;;;;;;;5.62;100.00;99948.91;1710815;84;21011;-77
2022/11/04 01:50:57;;;;;;;5.23;3.03;;;;;;;5.59;100.00;99949.17;1685179;85;21041;-78
2022/11/04 01:53:32;;;;;;;4.83;3.10;;;;;;;5.58;100.00;99955.55;1684935;84;21599;-79
2022/11/04 01:56:10;;;;;;;4.87;2.50;;;;;;;5.60;100.00;99967.48;1594079;90;21132;-77
2022/11/04 01:58:34;;;;;;;3.83;2.80;;;;;;;5.60;100.00;99961.61;1591451;90;21079;-77
2022/11/04 02:01:01;;;;;;;4.40;2.80;;;;;;;5.60;100.00;99967.48;1594191;90;21111;-78
2022/11/04 02:03:34;;;;;;;4.47;2.77;;;;;;;5.60;100.00;99962.95;1594153;90;21082;-78
2022/11/04 02:06:01;;;;;;;3.67;3.15;;;;;;;5.61;100.00;99960.64;1594481;90;21067;-77
2022/11/04 02:08:28;;;;;;;3.17;2.40;;;;;;;5.61;100.00;99956.62;1594117;90;21090;-78
2022/11/04 02:10:59;;;;;;;4.27;2.97;;;;;;;5.62;100.00;99954.27;1594455;90;21032;-77
2022/11/04 06:49:37;;;;;;;19.03;8.60;;;;;;;6.82;100.00;100573.27;1796485;78;22246;-77
2022/11/04 06:52:05;;;;;;;15.47;7.23;;;;;;;6.99;100.00;100336.55;1772687;79;21014;-78
2022/11/04 06:54:32;;;;;;;18.00;7.67;;;;;;;7.02;100.00;100308.52;1785668;79;21492;-76
2022/11/04 06:56:59;;;;;;;15.03;6.37;;;;;;;7.01;100.00;100276.76;1789693;79;21054;-77
2022/11/04 06:59:25;;;;;;;15.87;6.97;;;;;;;7.02;100.00;100253.40;1803609;79;21018;-77
2022/11/04 07:01:53;;;;;;;23.20;11.13;;;;;;;7.11;100.00;100230.19;1802374;79;21042;-77
2022/11/04 07:04:20;;;;;;;20.97;10.13;;;;;;;7.27;100.00;100222.86;1793756;79;21027;-77
2022/11/04 07:06:48;;;;;;;16.37;7.97;;;;;;;7.49;100.00;100210.41;1803130;79;21022;-77
2022/11/04 07:09:15;;;;;;;15.43;6.97;;;;;;;7.71;100.00;100195.72;1776620;78;21029;-74
2022/11/04 07:11:43;;;;;;;14.70;6.67;;;;;;;7.85;100.00;100182.78;1758326;80;20994;-76
2022/11/04 07:14:10;;;;;;;20.53;9.10;;;;;;;7.93;100.00;100173.44;1755178;81;21101;-77
2022/11/04 07:16:37;;;;;;;20.53;9.80;;;;;;;8.04;100.00;100150.83;1755826;81;21042;-75
2022/11/04 07:19:05;;;;;;;19.27;8.00;;;;;;;8.14;100.00;100142.19;1785737;79;21086;-76
2022/11/04 07:21:32;;;;;;;21.57;10.73;;;;;;;8.21;100.00;100128.45;1804444;79;21076;-78
2022/11/04 07:24:01;;;;;;;21.23;10.00;;;;;;;8.24;100.00;100110.64;1802856;79;21083;-77
2022/11/04 07:26:27;;;;;;;17.53;8.53;;;;;;;8.26;100.00;100092.47;1762384;79;21511;-76
2022/11/04 07:28:54;;;;;;;17.33;7.77;;;;;;;8.31;100.00;100082.59;1755083;82;21046;-76
2022/11/04 07:31:21;;;;;;;19.57;7.83;;;;;;;8.39;100.00;100071.86;1756391;79;21014;-79
2022/11/04 07:33:50;;;;;;;23.10;11.80;;;;;;;8.52;100.00;100056.18;1797013;79;21062;-76
2022/11/04 07:36:17;;;;;;;18.37;8.47;;;;;;;8.65;100.00;100048.18;1803883;79;21011;-75
2022/11/04 07:38:45;;;;;;;17.87;7.57;;;;;;;8.77;100.00;100028.55;1800887;79;21026;-74
2022/11/04 07:41:12;;;;;;;18.33;8.30;;;;;;;8.87;100.00;100017.13;1799802;79;21477;-76
2022/11/04 07:43:40;;;;;;;21.70;8.67;;;;;;;8.97;100.00;100004.88;1804042;79;21539;-77
2022/11/04 07:46:10;;;;;;;21.02;10.23;;;;;;;9.06;100.00;99989.07;1803311;79;21030;-77
2022/11/04 07:48:37;;;;;;;22.93;11.47;;;;;;;9.10;100.00;99972.89;1741551;81;21674;-76
2022/11/04 07:51:06;;;;;;;20.43;9.50;;;;;;;9.02;100.00;99954.84;1735609;81;21029;-77
2022/11/04 07:53:33;;;;;;;19.67;7.93;;;;;;;8.98;100.00;99915.73;1733342;83;21033;-75
2022/11/04 07:56:06;;;;;;;21.03;9.40;;;;;;;8.93;100.00;99884.36;1733397;83;21124;-76
2022/11/04 07:58:33;;;;;;;;;;;;;;;8.88;100.00;99844.91;1735797;83;21037;-73
2022/11/04 08:01:05;;;;;;;16.60;7.60;;;;;;;8.80;100.00;99813.39;1733486;83;20437;-76
2022/11/04 08:03:34;;;;;;;19.77;8.80;;;;;;;8.76;100.00;99791.79;1733483;83;21006;-78
2022/11/04 08:06:04;;;;;;;18.03;8.10;;;;;;;8.59;100.00;99750.50;1733527;83;20993;-72
2022/11/04 08:08:31;;;;;;;26.73;13.20;;;;;;;8.39;100.00;99712.69;1733125;83;21077;-76
2022/11/04 08:11:02;;;;;;;16.73;8.57;;;;;;;8.26;100.00;99675.45;1733281;83;21064;-76
2022/11/04 08:13:31;;;;;;;15.53;7.80;;;;;;;8.16;100.00;99648.66;1733458;83;21177;-76
2022/11/04 08:16:08;;;;;;;15.57;7.30;;;;;;;8.10;100.00;99622.40;1712347;84;21036;-76
2022/11/04 08:18:35;;;;;;;18.27;7.33;;;;;;;8.08;100.00;99610.44;1712930;84;21114;-74
2022/11/04 08:21:03;;;;;;;20.60;9.23;;;;;;;8.20;100.00;99601.55;1712563;84;21035;-74
2022/11/04 08:23:32;;;;;;;21.83;9.63;;;;;;;8.36;100.00;99608.80;1712445;84;21059;-78
2022/11/04 08:26:00;;;;;;;20.73;9.43;;;;;;;8.45;100.00;99590.31;1713173;84;21043;-77
2022/11/04 08:28:28;;;;;;;16.63;7.67;;;;;;;8.52;100.00;99579.70;1713119;84;21024;-79
2022/11/04 08:31:04;;;;;;;16.23;7.53;;;;;;;8.50;100.00;99563.70;1713407;84;21075;-76
2022/11/04 08:33:32;;;;;;;23.13;9.13;;;;;;;8.46;100.00;99537.26;1712321;84;21016;-77
2022/11/04 08:36:07;;;;;;;19.90;8.53;;;;;;;8.41;100.00;99522.94;1712988;84;20996;-78
2022/11/04 08:38:36;;;;;;;20.10;8.60;;;;;;;8.45;100.00;99510.00;1712653;84;21032;-77
2022/11/04 08:41:04;;;;;;;20.80;8.70;;;;;;;8.53;100.00;99494.66;1712737;84;21112;-75
2022/11/04 08:43:33;;;;;;;16.33;8.57;;;;;;;8.67;100.00;99477.44;1712331;84;21028;-77
2022/11/04 08:46:00;;;;;;;14.80;7.27;;;;;;;8.73;100.00;99466.81;1740637;82;21063;-76
2022/11/04 08:48:27;;;;;;;17.43;7.83;;;;;;;8.76;100.00;99448.09;1749828;82;21089;-76
2022/11/04 08:50:55;;;;;;;17.57;7.50;;;;;;;8.78;100.00;99441.17;1749800;82;20979;-78
2022/11/04 08:53:22;;;;;;;22.10;8.27;;;;;;;8.81;100.00;99432.23;1749560;82;21057;-75
2022/11/04 08:55:49;;;;;;;15.18;6.78;;;;;;;8.91;100.00;99426.12;1749287;82;21030;-75
2022/11/04 08:58:16;;;;;;;17.23;7.30;;;;;;;8.99;100.00;99407.72;1749145;82;21105;-75
2022/11/04 09:00:45;;;;;;;17.25;7.60;;;;;;;9.15;100.00;99411.35;1750119;82;21026;-82
2022/11/04 09:03:13;;;;;;;15.23;7.90;;;;;;;9.25;100.00;99402.02;1750147;82;21066;-80
2022/11/04 09:05:43;;;;;;;17.00;7.75;;;;;;;9.33;100.00;99394.39;1750158;82;21042;-79
2022/11/04 09:08:12;;;;;;;15.32;6.97;;;;;;;9.34;100.00;99383.09;1750160;82;21014;-82
2022/11/04 09:10:44;;;;;;;15.43;7.70;;;;;;;9.40;100.00;99379.66;1750596;82;21120;-79
2022/11/04 09:13:14;;;;;;;17.73;9.45;;;;;;;9.46;100.00;99368.98;1763675;81;21129;-79
2022/11/04 09:15:41;;;;;;;13.48;7.78;;;;;;;9.61;100.00;99375.78;1780779;81;20994;-79
2022/11/04 09:18:10;;;;;;;13.62;7.10;;;;;;;9.74;100.00;99370.28;1780700;81;21023;-83
2022/11/04 09:20:40;;;;;;;14.95;6.58;;;;;;;9.84;100.00;99362.28;1781088;81;21026;-79
2022/11/04 09:23:07;;;;;;;11.53;5.40;;;;;;;10.00;100.00;99363.95;1780889;81;21046;-78
2022/11/04 09:25:34;;;;;;;14.73;6.35;;;;;;;10.04;100.00;99359.88;1780298;81;20990;-80
2022/11/04 09:28:03;;;;;;;13.13;6.62;;;;;;;10.10;100.00;99350.20;1780776;81;21022;-80
2022/11/04 09:30:30;;;;;;;12.25;6.20;;;;;;;10.02;100.00;99343.03;1780382;81;21026;-80
2022/11/04 09:32:57;;;;;;;10.78;5.97;;;;;;;9.93;100.00;99337.87;1780636;81;21046;-79
2022/11/04 09:35:26;;;;;;;13.80;6.22;;;;;;;9.91;100.00;99337.23;1780329;81;21046;-76
2022/11/04 09:37:53;;;;;;;11.12;5.75;;;;;;;9.91;100.00;99322.37;1780610;81;21452;-79
2022/11/04 09:40:23;;;;;;;11.15;5.67;;;;;;;9.91;100.00;99312.40;1780389;81;21527;-77
2022/11/04 09:43:23;;;;;;;11.57;5.42;;;;;;;9.85;100.00;99318.55;1779781;81;21065;-77
2022/11/04 09:45:50;;;;;;;9.98;5.12;;;;;;;9.79;100.00;99329.58;1765936;81;21100;-82
2022/11/04 09:48:22;;;;;;;12.28;5.10;;;;;;;9.80;100.00;99337.99;1758525;81;21057;-80
2022/11/04 09:50:59;;;;;;;12.03;5.87;;;;;;;9.77;100.00;99352.37;1616432;89;21093;-79
2022/11/04 09:53:43;;;;;;;11.65;5.55;;;;;;;9.76;100.00;99360.98;1617084;89;21069;-80
2022/11/04 09:56:36;;;;;;;20.35;7.35;;;;;;;9.77;100.00;99369.40;1617311;89;21176;-80
2022/11/04 09:59:04;;;;;;;40.58;15.50;;;;;;;9.82;100.00;99376.45;1617324;88;21096;-80
2022/11/04 10:01:36;;;;;;;12.60;6.42;;;;;;;9.93;100.00;99381.91;1595893;89;21578;-82
2022/11/04 10:04:11;;;;;;;21.68;7.80;;;;;;;10.02;100.00;99388.08;1617568;89;21057;-79
2022/11/04 10:07:16;;;;;;;14.30;7.55;;;;;;;10.00;100.00;99398.23;1617962;89;21104;-84
2022/11/04 10:09:51;;;;;;;15.65;7.85;;;;;;;10.08;100.00;99396.30;1619459;88;21060;-80
2022/11/04 10:12:50;;;;;;;12.93;7.05;;;;;;;10.24;100.00;99399.34;1594545;90;21083;-83
2022/11/04 10:15:42;;;;;;;14.03;6.90;;;;;;;10.35;100.00;99406.71;1593849;90;21103;-78
2022/11/04 10:18:50;;;;;;;10.68;6.33;;;;;;;10.44;100.00;99411.00;1593951;90;21107;-83
2022/11/04 10:21:45;;;;;;;15.40;7.45;;;;;;;10.52;100.00;99429.02;1593850;90;21162;-84
2022/11/04 10:24:19;;;;;;;18.40;8.55;;;;;;;10.57;100.00;99445.00;1594705;90;21087;-81
2022/11/04 10:27:00;;;;;;;15.28;6.70;;;;;;;10.63;100.00;99461.81;1593896;90;21178;-83
2022/11/04 10:29:42;;;;;;;15.40;6.47;;;;;;;10.68;100.00;99473.44;1551009;91;21159;-82
2022/11/04 10:32:18;;;;;;;10.23;5.35;;;;;;;10.75;100.00;99481.13;1563526;91;21117;-83
2022/11/04 10:35:33;;;;;;;11.30;5.75;;;;;;;10.75;100.00;99491.94;1580728;90;21057;-82
2022/11/04 10:38:17;;;;;;;10.10;5.75;;;;;;;10.84;100.00;99491.34;1511758;94;21020;-81
2022/11/04 10:40:48;;;;;;;11.78;6.05;;;;;;;10.97;100.00;99500.15;1457569;99;21115;-81
2022/11/04 10:43:21;;;;;;;12.13;5.45;;;;;;;11.11;100.00;99506.06;1436317;100;21188;-80
2022/11/04 10:46:22;;;;;;;10.10;5.08;;;;;;;11.20;100.00;99518.98;1436438;100;21109;-80
2022/11/04 10:49:00;;;;;;;30.95;15.00;;;;;;;11.25;100.00;99519.27;1452028;96;21132;-79
2022/11/04 10:51:28;;;;;;;23.05;10.38;;;;;;;11.38;100.00;99514.52;1435801;97;21100;-84
2022/11/04 10:53:58;;;;;;;27.90;13.62;;;;;;;11.47;100.00;99516.61;1468570;96;21109;-85
2022/11/04 10:56:52;;;;;;;32.17;18.05;;;;;;;11.51;100.00;99526.02;1483678;96;21156;-84
2022/11/04 10:59:40;;;;;;;21.57;10.05;;;;;;;11.50;100.00;99533.31;1495503;96;21106;-85
2022/11/04 11:02:08;;;;;;;21.82;12.93;;;;;;;11.37;100.00;99546.18;1481990;97;21665;-85
2022/11/04 11:04:45;;;;;;;18.65;9.38;;;;;;;11.23;100.00;99557.86;1481967;97;21558;-85
2022/11/04 11:07:17;;;;;;;13.13;6.58;;;;;;;11.15;100.00;99557.42;1515583;94;21585;-79
2022/11/04 11:09:50;;;;;;;10.82;5.40;;;;;;;11.16;100.00;99566.40;1496792;96;21119;-78
2022/11/04 11:12:25;;;;;;;11.40;5.83;;;;;;;11.14;100.00;99561.69;1530513;93;21123;-82
2022/11/04 11:14:50;;;;;;;13.80;6.40;;;;;;;11.07;100.00;99572.94;1542187;92;21166;-79
2022/11/04 11:17:24;;;;;;;13.80;6.60;;;;;;;11.07;100.00;99578.34;1546712;92;21172;-78
2022/11/04 11:20:19;;;;;;;14.35;6.00;;;;;;;11.09;100.00;99582.53;1501621;96;21724;-75
2022/11/04 11:22:49;;;;;;;9.98;5.10;;;;;;;11.07;100.00;99598.63;1514705;92;21197;-79
2022/11/04 11:25:32;;;;;;;11.33;5.20;;;;;;;11.05;100.00;99601.52;1540083;93;21170;-77
2022/11/04 11:28:04;;;;;;;13.00;6.87;;;;;;;10.98;100.00;99603.28;1539881;93;21093;-78
2022/11/04 11:30:45;;;;;;;12.25;5.50;;;;;;;10.87;100.00;99611.83;1540439;93;21078;-80
2022/11/04 11:33:32;;;;;;;9.60;5.15;;;;;;;10.75;100.00;99612.80;1539691;93;21103;-79
2022/11/04 11:36:15;;;;;;;14.18;6.92;;;;;;;10.66;100.00;99613.88;1574382;89;21087;-77
2022/11/04 11:39:15;;;;;;;9.30;4.78;;;;;;;10.64;100.00;99610.86;1601514;89;21057;-78
2022/11/04 11:42:06;;;;;;;9.38;4.60;;;;;;;10.74;100.00;99601.64;1664487;86;21921;-79
2022/11/04 11:44:50;;;;;;;10.32;5.67;;;;;;;10.85;100.00;99590.37;1663190;86;21022;-78
2022/11/04 11:47:30;;;;;;;13.93;7.95;;;;;;;11.00;100.00;99587.70;1662418;86;21153;-79
2022/11/04 11:50:19;;;;;;;12.33;6.28;;;;;;;11.06;100.00;99599.64;1655709;85;21066;-82
2022/11/04 11:52:47;;;;;;;11.65;6.12;;;;;;;11.09;100.00;99606.05;1664596;86;21076;-80
2022/11/04 11:55:35;;;;;;;8.58;5.15;;;;;;;11.13;100.00;99604.13;1664449;86;21011;-75
2022/11/04 11:58:44;;;;;;;17.55;9.63;;;;;;;11.14;100.00;99609.88;1664157;86;21030;-78
2022/11/04 12:01:31;;;;;;;16.48;6.08;;;;;;;11.20;100.00;99619.94;1663555;86;21065;-79
2022/11/04 12:03:59;;;;;;;13.08;6.00;;;;;;;11.38;100.00;99621.45;1567772;90;21069;-79
2022/11/04 12:06:43;;;;;;;12.07;6.20;;;;;;;11.62;100.00;99621.69;1594216;90;21101;-78
2022/11/04 12:09:25;;;;;;;14.13;5.75;;;;;;;12.00;100.00;99613.94;1606114;89;21126;-77
2022/11/04 12:12:27;;;;;;;9.73;4.72;;;;;;;12.43;100.00;99617.55;1624642;88;21044;-79
2022/11/04 12:15:27;;;;;;;14.73;6.30;;;;;;;12.86;100.00;99620.75;1631055;88;21076;-77
2022/11/04 12:18:11;;;;;;;16.57;7.47;;;;;;;13.15;100.00;99644.13;1715242;84;21074;-79
2022/11/04 12:21:09;;;;;;;14.38;7.67;;;;;;;13.25;100.00;99678.56;1676737;84;21061;-80
2022/11/04 12:24:16;;;;;;;8.18;5.42;;;;;;;13.04;100.00;99719.31;1620368;89;21081;-80
2022/11/04 12:27:15;;;;;;;11.53;5.25;;;;;;;12.79;100.00;99731.09;1664058;86;21073;-78
2022/11/04 12:30:09;;;;;;;11.35;5.45;;;;;;;12.76;100.00;99732.82;1662685;86;21070;-80
2022/11/04 12:33:02;;;;;;;11.57;6.30;;;;;;;12.64;100.00;99741.97;1619450;89;21534;-76
2022/11/04 12:35:37;;;;;;;10.48;5.55;;;;;;;12.63;100.00;99737.59;1568621;91;21166;-75
2022/11/04 12:38:34;;;;;;;10.28;5.17;;;;;;;12.83;100.00;99744.05;1568500;91;21063;-76
2022/11/04 12:41:24;;;;;;;13.32;6.60;;;;;;;12.95;100.00;99746.27;1563222;92;21138;-76
2022/11/04 12:44:16;;;;;;;20.08;8.80;;;;;;;13.11;100.00;99754.98;1563160;92;21050;-77
2022/11/04 12:47:00;;;;;;;10.23;5.17;;;;;;;13.03;100.00;99761.05;1529741;94;21105;-76
2022/11/04 12:49:44;;;;;;;9.43;5.40;;;;;;;12.78;100.00;99764.66;1550786;90;21168;-77
2022/11/04 12:52:38;;;;;;;9.80;5.00;;;;;;;12.49;100.00;99779.47;1576881;91;21029;-77
2022/11/04 12:55:18;;;;;;;12.10;6.65;;;;;;;12.26;100.00;99767.92;1577853;90;21168;-76
2022/11/04 12:58:18;;;;;;;18.35;7.67;;;;;;;12.01;100.00;99776.34;1577036;91;21089;-78
2022/11/04 13:00:50;;;;;;;15.05;7.55;;;;;;;11.81;100.00;99775.16;1594693;90;21053;-80
2022/11/04 13:03:39;;;;;;;15.60;7.42;;;;;;;11.53;100.00;99779.86;1597974;90;21044;-78
2022/11/04 13:06:36;;;;;;;15.85;8.50;;;;;;;11.31;100.00;99785.63;1600929;90;21087;-78
2022/11/04 13:09:16;;;;;;;21.37;9.43;;;;;;;11.08;100.00;99785.12;1620327;88;21102;-79
2022/11/04 13:11:55;;;;;;;20.02;9.33;;;;;;;10.91;100.00;99779.00;1626989;88;21081;-81
2022/11/04 13:14:31;;;;;;;20.15;9.70;;;;;;;10.78;100.00;99769.27;1600000;90;21075;-78
2022/11/04 13:17:03;;;;;;;24.12;11.65;;;;;;;10.64;100.00;99770.88;1596990;90;21143;-76
2022/11/04 13:19:53;;;;;;;22.22;10.50;;;;;;;10.53;100.00;99762.66;1573538;91;21634;-83
2022/11/04 13:22:26;;;;;;;19.35;9.65;;;;;;;10.47;100.00;99755.79;1553513;90;21066;-77
2022/11/04 13:25:02;;;;;;;18.92;9.88;;;;;;;10.38;100.00;99759.88;1547959;93;21067;-77
2022/11/04 13:27:36;;;;;;;26.68;11.18;;;;;;;10.25;100.00;99761.77;1547916;93;21110;-79
2022/11/04 13:30:35;;;;;;;21.52;10.48;;;;;;;10.15;100.00;99763.84;1548128;93;21086;-75
2022/11/04 13:33:22;;;;;;;24.57;10.93;;;;;;;10.04;100.00;99762.36;1587467;90;21148;-75
2022/11/04 13:36:28;;;;;;;21.77;9.48;;;;;;;9.97;100.00;99761.86;1597637;90;21263;-77
2022/11/04 13:38:59;;;;;;;21.90;9.78;;;;;;;9.91;100.00;99754.47;1569295;91;21058;-78
2022/11/04 13:41:50;;;;;;;23.95;11.05;;;;;;;9.84;100.00;99744.86;1579902;91;21081;-80
2022/11/04 13:44:26;;;;;;;21.75;10.43;;;;;;;9.78;100.00;99748.27;1579745;91;21066;-76
2022/11/04 13:46:56;;;;;;;22.30;10.80;;;;;;;9.69;100.00;99740.70;1577850;91;21078;-81
2022/11/04 13:49:32;;;;;;;21.65;9.98;;;;;;;9.62;100.00;99745.93;1573857;91;21142;-77
2022/11/04 13:52:10;;;;;;;29.30;13.93;;;;;;;9.55;100.00;99735.48;1553697;92;21535;-75
2022/11/04 13:54:45;;;;;;;26.23;12.10;;;;;;;9.47;100.00;99736.36;1510348;95;21148;-78
2022/11/04 13:57:27;;;;;;;22.67;10.05;;;;;;;9.39;100.00;99730.12;1510283;95;21078;-85
2022/11/04 14:00:12;;;;;;;23.67;11.00;;;;;;;9.33;100.00;99730.80;1507805;95;21111;-78
2022/11/04 14:02:45;;;;;;;21.55;10.63;;;;;;;9.26;100.00;99731.49;1544853;90;21470;-76
2022/11/04 14:05:34;;;;;;;22.93;9.98;;;;;;;9.17;100.00;99726.26;1562446;92;21129;-80
2022/11/04 14:08:12;;;;;;;22.70;9.13;;;;;;;9.13;100.00;99724.41;1563038;90;21546;-77
2022/11/04 16:27:36;;;;;;;14.50;6.30;;;;;;;7.92;100.00;99632.78;1710347;84;21515;-75
2022/11/04 16:30:18;;;;;;;17.30;6.70;;;;;;;7.90;100.00;99630.77;1714185;83;21026;-76
2022/11/04 16:32:51;;;;;;;16.73;6.40;;;;;;;7.89;100.00;99639.00;1710627;83;21029;-75
2022/11/04 16:35:26;;;;;;;;;;;;;;;7.87;100.00;99632.43;1713203;84;21053;-75
2022/11/04 16:37:54;;;;;;;14.93;7.00;;;;;;;7.87;100.00;99631.59;1710590;83;20106;-76
2022/11/04 16:40:22;;;;;;;14.17;7.03;;;;;;;7.87;100.00;99631.08;1710593;82;21669;-76
2022/11/04 16:42:49;;;;;;;17.50;7.97;;;;;;;7.85;100.00;99633.10;1710481;84;21021;-77
2022/11/04 16:45:30;;;;;;;18.63;8.93;;;;;;;7.85;100.00;99634.45;1710560;84;21041;-77
2022/11/04 16:47:56;;;;;;;18.97;8.87;;;;;;;7.84;100.00;99636.79;1710555;84;21036;-77
2022/11/04 16:50:23;;;;;;;20.30;9.43;;;;;;;7.83;100.00;99630.25;1710563;84;21063;-77
2022/11/04 16:52:50;;;;;;;18.43;8.80;;;;;;;7.85;100.00;99630.92;1710559;84;21126;-77
2022/11/04 16:55:17;;;;;;;18.30;9.07;;;;;;;7.85;100.00;99635.80;1710511;84;21049;-77
2022/11/04 16:57:45;;;;;;;18.77;8.67;;;;;;;7.85;100.00;99633.10;1710412;84;21085;-77
2022/11/04 17:00:22;;;;;;;20.03;9.40;;;;;;;7.86;100.00;99632.11;1710559;83;21042;-76
2022/11/04 17:02:50;;;;;;;24.20;10.10;;;;;;;7.86;100.00;99634.80;1710363;84;21021;-77
2022/11/04 17:05:17;;;;;;;23.43;10.07;;;;;;;7.87;100.00;99633.78;1710326;84;21542;-77
2022/11/04 17:07:44;;;;;;;25.93;11.83;;;;;;;7.87;100.00;99637.81;1710546;84;21046;-77
2022/11/04 17:10:17;;;;;;;24.93;10.63;;;;;;;7.87;100.00;99635.64;1710736;83;21479;-76
2022/11/04 17:12:45;;;;;;;24.77;11.07;;;;;;;7.85;100.00;99633.61;1718645;83;21027;-76
2022/11/04 17:15:12;;;;;;;26.30;10.57;;;;;;;7.84;100.00;99632.75;1717783;83;21027;-77
2022/11/04 17:17:41;;;;;;;23.73;10.30;;;;;;;7.83;100.00;99627.55;1717164;83;21063;-77
2022/11/04 17:20:11;;;;;;;23.73;9.87;;;;;;;7.81;100.00;99625.02;1718837;83;21063;-78
2022/11/04 17:22:37;;;;;;;21.87;10.17;;;;;;;7.78;100.00;99614.06;1709369;83;21023;-76
2022/11/04 17:25:12;;;;;;;23.03;11.00;;;;;;;7.78;100.00;99615.92;1717664;83;21500;-76
2022/11/04 17:27:40;;;;;;;25.70;11.63;;;;;;;7.76;100.00;99611.21;1765758;81;21090;-77
2022/11/04 17:30:08;;;;;;;26.27;11.47;;;;;;;7.74;100.00;99613.23;1802635;79;21551;-76
2022/11/04 17:32:34;;;;;;;24.50;11.03;;;;;;;7.74;100.00;99610.53;1801269;79;21046;-76
2022/11/04 17:35:03;;;;;;;26.60;10.97;;;;;;;7.73;100.00;99616.40;1799792;79;21507;-77
2022/11/04 17:37:30;;;;;;;22.50;10.33;;;;;;;7.75;100.00;99625.66;1800030;80;21050;-76
2022/11/04 17:39:57;;;;;;;22.57;10.23;;;;;;;7.73;100.00;99615.05;1799932;79;21043;-76
2022/11/04 17:45:09;;;;;;;21.53;9.33;;;;;;;7.72;100.00;99619.25;1800512;79;21496;-78
2022/11/04 17:47:37;;;;;;;19.97;9.47;;;;;;;7.72;100.00;99619.25;1800003;80;21003;-76
2022/11/04 17:50:06;;;;;;;19.30;8.63;;;;;;;7.71;100.00;99610.34;1800036;79;21011;-76
2022/11/04 17:52:35;;;;;;;20.10;8.90;;;;;;;7.70;100.00;99609.16;1800067;80;20991;-76
2022/11/04 17:55:04;;;;;;;20.10;9.27;;;;;;;7.71;100.00;99602.78;1800267;79;21027;-76
2022/11/04 17:57:35;;;;;;;20.63;8.90;;;;;;;7.70;100.00;99600.60;1800135;79;21086;-76
2022/11/04 18:00:07;;;;;;;26.30;10.40;;;;;;;7.69;100.00;99600.25;1799895;79;21078;-76
2022/11/04 18:02:35;;;;;;;35.50;12.97;;;;;;;7.68;100.00;99601.24;1799916;80;21070;-77
2022/11/04 18:05:03;;;;;;;33.73;13.73;;;;;;;7.66;100.00;99599.22;1800046;80;21517;-77
2022/11/04 18:07:30;;;;;;;31.87;12.57;;;;;;;7.65;100.00;99603.41;1800024;80;21015;-75
2022/11/04 18:09:58;;;;;;;35.40;14.67;;;;;;;7.63;100.00;99598.70;1800095;79;21019;-77
2022/11/04 18:12:35;;;;;;;32.93;13.57;;;;;;;7.61;100.00;99601.55;1785547;79;21003;-76
2022/11/04 18:15:05;;;;;;;31.63;11.37;;;;;;;7.56;100.00;99598.02;1784981;80;21030;-76
2022/11/04 18:17:38;;;;;;;30.67;11.77;;;;;;;7.54;100.00;99597.83;1748496;82;21583;-77
2022/11/04 18:20:08;;;;;;;20.75;9.58;;;;;;;7.52;100.00;99597.16;1748365;82;21050;-76
2022/11/04 18:22:35;;;;;;;22.87;10.50;;;;;;;7.50;100.00;99599.17;1748408;81;21066;-77
2022/11/04 18:25:02;;;;;;;19.93;9.97;;;;;;;7.47;100.00;99600.35;1748378;82;21061;-76
2022/11/04 18:27:29;;;;;;;20.20;8.70;;;;;;;7.45;100.00;99598.80;1748122;82;21064;-77
2022/11/04 18:29:56;;;;;;;21.60;10.00;;;;;;;7.44;100.00;99597.98;1748459;82;21050;-76
2022/11/04 18:32:23;;;;;;;21.50;10.30;;;;;;;7.44;100.00;99604.70;1748204;82;21056;-75
2022/11/04 18:34:50;;;;;;;25.00;11.03;;;;;;;7.44;100.00;99602.01;1748070;82;21532;-77
2022/11/04 18:37:18;;;;;;;26.80;11.63;;;;;;;7.43;100.00;99595.44;1748245;82;21023;-77
2022/11/04 18:39:45;;;;;;;27.83;12.10;;;;;;;7.42;100.00;99601.34;1748543;82;20999;-76
2022/11/04 18:42:11;;;;;;;24.00;11.23;;;;;;;7.40;100.00;99601.97;1748285;82;21026;-75
2022/11/04 18:44:38;;;;;;;25.43;11.60;;;;;;;7.37;100.00;99596.42;1748177;82;21062;-77
2022/11/04 18:47:04;;;;;;;22.23;10.77;;;;;;;7.35;100.00;99604.33;1748585;82;21019;-76
2022/11/04 18:49:31;;;;;;;26.20;11.53;;;;;;;7.32;100.00;99597.41;1748497;82;21046;-76
2022/11/04 18:51:59;;;;;;;23.17;11.30;;;;;;;7.32;100.00;99601.95;1748156;81;21061;-77
2022/11/04 18:54:26;;;;;;;23.67;10.83;;;;;;;7.31;100.00;99603.81;1748256;82;21038;-77
2022/11/04 18:56:52;;;;;;;23.07;10.80;;;;;;;7.31;100.00;99604.28;1748411;82;21038;-76
2022/11/04 18:59:19;;;;;;;21.83;10.33;;;;;;;7.33;100.00;99601.80;1748245;82;21069;-76
2022/11/04 19:01:45;;;;;;;23.03;10.40;;;;;;;7.34;100.00;99608.01;1748466;82;21015;-76
2022/11/04 19:04:12;;;;;;;21.70;9.67;;;;;;;7.35;100.00;99602.98;1748271;82;21014;-77
2022/11/04 19:06:42;;;;;;;23.47;10.00;;;;;;;7.35;100.00;99605.67;1748441;82;21065;-77